sensor_id;sensor_type;location;lat;lon;timestamp;temperature;humidity
7654;DHT22;3869;48.406;10.774;2023-04-01T00:01:13;8.10;99.90
7654;DHT22;3869;48.406;10.774;2023-04-01T00:03:43;8.10;99.90
7654;DHT22;3869;48.406;10.774;2023-04-01T00:06:14;8.10;99.90
7654;DHT22;3869;48.406;10.774;2023-04-01T00:08:43;8.10;99.90
7654;DHT22;3869;48.406;10.774;2023-04-01T00:11:12;8.10;99.90
7654;DHT22;3869;48.406;10.774;2023-04-01T00:13:40;8.10;99.90
7654;DHT22;3869;48.406;10.774;2023-04-01T00:16:08;8.10;99.90
7654;DHT22;3869;48.406;10.774;2023-04-01T00:18:48;8.10;99.90
7654;DHT22;3869;48.406;10.774;2023-04-01T00:21:19;8.10;99.90
7654;DHT22;3869;48.406;10.774;2023-04-01T00:23:49;8.10;99.90
7654;DHT22;3869;48.406;10.774;2023-04-01T00:26:17;8.10;99.90
7654;DHT22;3869;48.406;10.774;2023-04-01T00:28:47;8.10;99.90
7654;DHT22;3869;48.406;10.774;2023-04-01T00:31:15;8.10;99.90
7654;DHT22;3869;48.406;10.774;2023-04-01T00:33:44;8.10;99.90
7654;DHT22;3869;48.406;10.774;2023-04-01T00:36:13;8.10;99.90
7654;DHT22;3869;48.406;10.774;2023-04-01T00:38:44;8.10;99.90
7654;DHT22;3869;48.406;10.774;2023-04-01T00:41:14;8.10;99.90
7654;DHT22;3869;48.406;10.774;2023-04-01T00:43:44;8.10;99.90
7654;DHT22;3869;48.406;10.774;2023-04-01T00:46:13;8.10;99.90
7654;DHT22;3869;48.406;10.774;2023-04-01T00:48:43;8.20;99.90
7654;DHT22;3869;48.406;10.774;2023-04-01T00:51:13;8.10;99.90
7654;DHT22;3869;48.406;10.774;2023-04-01T00:53:46;8.10;99.90
7654;DHT22;3869;48.406;10.774;2023-04-01T00:56:18;8.20;99.90
7654;DHT22;3869;48.406;10.774;2023-04-01T00:58:51;8.10;99.90
7654;DHT22;3869;48.406;10.774;2023-04-01T01:01:20;8.10;99.90
7654;DHT22;3869;48.406;10.774;2023-04-01T01:03:49;8.10;99.90
7654;DHT22;3869;48.406;10.774;2023-04-01T01:06:25;8.10;99.90
7654;DHT22;3869;48.406;10.774;2023-04-01T01:09:15;8.10;99.90
7654;DHT22;3869;48.406;10.774;2023-04-01T01:11:51;8.10;99.90
7654;DHT22;3869;48.406;10.774;2023-04-01T01:14:34;8.20;99.90
7654;DHT22;3869;48.406;10.774;2023-04-01T01:17:11;8.20;99.90
7654;DHT22;3869;48.406;10.774;2023-04-01T01:20:16;8.20;99.90
7654;DHT22;3869;48.406;10.774;2023-04-01T01:23:06;8.20;99.90
7654;DHT22;3869;48.406;10.774;2023-04-01T01:25:44;8.20;99.90
7654;DHT22;3869;48.406;10.774;2023-04-01T01:28:28;8.10;99.90
7654;DHT22;3869;48.406;10.774;2023-04-01T01:31:09;8.10;99.90
7654;DHT22;3869;48.406;10.774;2023-04-01T01:33:50;8.10;99.90
7654;DHT22;3869;48.406;10.774;2023-04-01T01:36:23;8.10;99.90
7654;DHT22;3869;48.406;10.774;2023-04-01T01:38:55;8.10;99.90
7654;DHT22;3869;48.406;10.774;2023-04-01T01:41:25;8.10;99.90
7654;DHT22;3869;48.406;10.774;2023-04-01T01:43:56;8.10;99.90
7654;DHT22;3869;48.406;10.774;2023-04-01T01:46:26;8.10;99.90
7654;DHT22;3869;48.406;10.774;2023-04-01T01:48:56;8.00;99.90
7654;DHT22;3869;48.406;10.774;2023-04-01T01:51:27;7.90;99.90
7654;DHT22;3869;48.406;10.774;2023-04-01T01:53:55;7.90;99.90
7654;DHT22;3869;48.406;10.774;2023-04-01T01:56:26;7.80;99.90
7654;DHT22;3869;48.406;10.774;2023-04-01T01:58:58;7.80;99.90
7654;DHT22;3869;48.406;10.774;2023-04-01T02:01:28;7.70;99.90
7654;DHT22;3869;48.406;10.774;2023-04-01T02:03:58;7.70;99.90
7654;DHT22;3869;48.406;10.774;2023-04-01T02:06:30;7.70;99.90
7654;DHT22;3869;48.406;10.774;2023-04-01T02:09:02;7.70;99.90
7654;DHT22;3869;48.406;10.774;2023-04-01T02:11:34;7.70;99.90
7654;DHT22;3869;48.406;10.774;2023-04-01T02:14:06;7.70;99.90
7654;DHT22;3869;48.406;10.774;2023-04-01T02:16:37;7.70;99.90
7654;DHT22;3869;48.406;10.774;2023-04-01T02:19:09;7.60;99.90
7654;DHT22;3869;48.406;10.774;2023-04-01T02:21:40;7.60;99.90
7654;DHT22;3869;48.406;10.774;2023-04-01T02:24:12;7.60;99.90
7654;DHT22;3869;48.406;10.774;2023-04-01T02:26:42;7.60;99.90
7654;DHT22;3869;48.406;10.774;2023-04-01T02:29:11;7.50;99.90
7654;DHT22;3869;48.406;10.774;2023-04-01T02:31:41;7.50;99.90
7654;DHT22;3869;48.406;10.774;2023-04-01T02:34:10;7.50;99.90
7654;DHT22;3869;48.406;10.774;2023-04-01T02:36:39;7.50;99.90
7654;DHT22;3869;48.406;10.774;2023-04-01T02:39:08;7.50;99.90
7654;DHT22;3869;48.406;10.774;2023-04-01T02:41:39;7.50;99.90
7654;DHT22;3869;48.406;10.774;2023-04-01T02:44:08;7.50;99.90
7654;DHT22;3869;48.406;10.774;2023-04-01T02:46:36;7.40;99.90
7654;DHT22;3869;48.406;10.774;2023-04-01T02:49:05;7.40;99.90
7654;DHT22;3869;48.406;10.774;2023-04-01T02:51:33;7.40;99.90
7654;DHT22;3869;48.406;10.774;2023-04-01T02:54:02;7.40;99.90
7654;DHT22;3869;48.406;10.774;2023-04-01T02:56:30;7.40;99.90
7654;DHT22;3869;48.406;10.774;2023-04-01T02:58:58;7.30;99.90
7654;DHT22;3869;48.406;10.774;2023-04-01T03:01:26;7.30;99.90
7654;DHT22;3869;48.406;10.774;2023-04-01T03:03:54;7.30;99.90
7654;DHT22;3869;48.406;10.774;2023-04-01T03:06:22;7.30;99.90
7654;DHT22;3869;48.406;10.774;2023-04-01T03:08:50;7.30;99.90
7654;DHT22;3869;48.406;10.774;2023-04-01T03:11:19;7.20;99.90
7654;DHT22;3869;48.406;10.774;2023-04-01T03:13:48;7.30;99.90
7654;DHT22;3869;48.406;10.774;2023-04-01T03:16:16;7.30;99.90
7654;DHT22;3869;48.406;10.774;2023-04-01T03:18:44;7.30;99.90
7654;DHT22;3869;48.406;10.774;2023-04-01T03:21:14;7.30;99.90
7654;DHT22;3869;48.406;10.774;2023-04-01T03:23:42;7.30;99.90
7654;DHT22;3869;48.406;10.774;2023-04-01T03:26:10;7.40;99.90
7654;DHT22;3869;48.406;10.774;2023-04-01T03:28:40;7.40;99.90
7654;DHT22;3869;48.406;10.774;2023-04-01T03:31:08;7.40;99.90
7654;DHT22;3869;48.406;10.774;2023-04-01T03:33:36;7.40;99.90
7654;DHT22;3869;48.406;10.774;2023-04-01T03:36:05;7.30;99.90
7654;DHT22;3869;48.406;10.774;2023-04-01T03:38:34;7.40;99.90
7654;DHT22;3869;48.406;10.774;2023-04-01T03:41:02;7.40;99.90
7654;DHT22;3869;48.406;10.774;2023-04-01T03:43:31;7.40;99.90
7654;DHT22;3869;48.406;10.774;2023-04-01T03:46:00;7.40;99.90
7654;DHT22;3869;48.406;10.774;2023-04-01T03:48:28;7.40;99.90
7654;DHT22;3869;48.406;10.774;2023-04-01T03:50:57;7.40;99.90
7654;DHT22;3869;48.406;10.774;2023-04-01T03:53:25;7.40;99.90
7654;DHT22;3869;48.406;10.774;2023-04-01T03:55:53;7.40;99.90
7654;DHT22;3869;48.406;10.774;2023-04-01T03:58:22;7.40;99.90
7654;DHT22;3869;48.406;10.774;2023-04-01T04:00:50;7.50;99.90
7654;DHT22;3869;48.406;10.774;2023-04-01T04:03:19;7.40;99.90
7654;DHT22;3869;48.406;10.774;2023-04-01T04:05:47;7.40;99.90
7654;DHT22;3869;48.406;10.774;2023-04-01T04:08:16;7.40;99.90
7654;DHT22;3869;48.406;10.774;2023-04-01T04:10:44;7.50;99.90
7654;DHT22;3869;48.406;10.774;2023-04-01T04:13:13;7.50;99.90
7654;DHT22;3869;48.406;10.774;2023-04-01T04:15:41;7.50;99.90
7654;DHT22;3869;48.406;10.774;2023-04-01T04:18:09;7.50;99.90
7654;DHT22;3869;48.406;10.774;2023-04-01T04:20:43;7.50;99.90
7654;DHT22;3869;48.406;10.774;2023-04-01T04:23:12;7.50;99.90
7654;DHT22;3869;48.406;10.774;2023-04-01T04:25:40;7.50;99.90
7654;DHT22;3869;48.406;10.774;2023-04-01T04:28:08;7.50;99.90
7654;DHT22;3869;48.406;10.774;2023-04-01T04:30:35;7.50;99.90
7654;DHT22;3869;48.406;10.774;2023-04-01T04:33:03;7.50;99.90
7654;DHT22;3869;48.406;10.774;2023-04-01T04:35:32;7.40;99.90
7654;DHT22;3869;48.406;10.774;2023-04-01T04:38:02;7.30;99.90
7654;DHT22;3869;48.406;10.774;2023-04-01T04:40:30;7.30;99.90
7654;DHT22;3869;48.406;10.774;2023-04-01T04:42:58;7.30;99.90
7654;DHT22;3869;48.406;10.774;2023-04-01T04:45:26;7.30;99.90
7654;DHT22;3869;48.406;10.774;2023-04-01T04:47:54;7.30;99.90
7654;DHT22;3869;48.406;10.774;2023-04-01T04:50:22;7.30;99.90
7654;DHT22;3869;48.406;10.774;2023-04-01T04:52:50;7.30;99.90
7654;DHT22;3869;48.406;10.774;2023-04-01T04:55:20;7.30;99.90
7654;DHT22;3869;48.406;10.774;2023-04-01T04:57:48;7.40;99.90
7654;DHT22;3869;48.406;10.774;2023-04-01T05:00:16;7.40;99.90
7654;DHT22;3869;48.406;10.774;2023-04-01T05:02:44;7.40;99.90
7654;DHT22;3869;48.406;10.774;2023-04-01T05:05:12;7.40;99.90
7654;DHT22;3869;48.406;10.774;2023-04-01T05:07:40;7.40;99.90
7654;DHT22;3869;48.406;10.774;2023-04-01T05:10:09;7.40;99.90
7654;DHT22;3869;48.406;10.774;2023-04-01T05:12:38;7.40;99.90
7654;DHT22;3869;48.406;10.774;2023-04-01T05:15:07;7.40;99.90
7654;DHT22;3869;48.406;10.774;2023-04-01T05:17:35;7.40;99.90
7654;DHT22;3869;48.406;10.774;2023-04-01T05:20:04;7.40;99.90
7654;DHT22;3869;48.406;10.774;2023-04-01T05:22:32;7.40;99.90
7654;DHT22;3869;48.406;10.774;2023-04-01T05:25:00;7.50;99.90
7654;DHT22;3869;48.406;10.774;2023-04-01T05:27:28;7.50;99.90
7654;DHT22;3869;48.406;10.774;2023-04-01T05:29:57;7.50;99.90
7654;DHT22;3869;48.406;10.774;2023-04-01T05:32:25;7.60;99.90
7654;DHT22;3869;48.406;10.774;2023-04-01T05:34:54;7.60;99.90
7654;DHT22;3869;48.406;10.774;2023-04-01T05:37:22;7.60;99.90
7654;DHT22;3869;48.406;10.774;2023-04-01T05:39:50;7.60;99.90
7654;DHT22;3869;48.406;10.774;2023-04-01T05:42:18;7.60;99.90
7654;DHT22;3869;48.406;10.774;2023-04-01T05:44:46;7.60;99.90
7654;DHT22;3869;48.406;10.774;2023-04-01T05:47:15;7.60;99.90
7654;DHT22;3869;48.406;10.774;2023-04-01T05:49:43;7.50;99.90
7654;DHT22;3869;48.406;10.774;2023-04-01T05:52:11;7.50;99.90
7654;DHT22;3869;48.406;10.774;2023-04-01T05:54:39;7.50;99.90
7654;DHT22;3869;48.406;10.774;2023-04-01T05:57:07;7.50;99.90
7654;DHT22;3869;48.406;10.774;2023-04-01T05:59:35;7.50;99.90
7654;DHT22;3869;48.406;10.774;2023-04-01T06:02:03;7.50;99.90
7654;DHT22;3869;48.406;10.774;2023-04-01T06:04:37;7.50;99.90
7654;DHT22;3869;48.406;10.774;2023-04-01T06:07:11;7.50;99.90
7654;DHT22;3869;48.406;10.774;2023-04-01T06:09:39;7.60;99.90
7654;DHT22;3869;48.406;10.774;2023-04-01T06:12:24;7.80;99.90
7654;DHT22;3869;48.406;10.774;2023-04-01T06:15:06;7.80;99.90
7654;DHT22;3869;48.406;10.774;2023-04-01T06:17:48;8.00;99.90
7654;DHT22;3869;48.406;10.774;2023-04-01T06:20:25;8.00;99.90
7654;DHT22;3869;48.406;10.774;2023-04-01T06:23:30;8.10;99.90
7654;DHT22;3869;48.406;10.774;2023-04-01T06:26:14;8.20;99.90
7654;DHT22;3869;48.406;10.774;2023-04-01T06:31:58;8.30;99.90
7654;DHT22;3869;48.406;10.774;2023-04-01T06:34:42;8.40;99.90
7654;DHT22;3869;48.406;10.774;2023-04-01T06:37:32;8.50;99.90
7654;DHT22;3869;48.406;10.774;2023-04-01T06:40:35;8.60;99.90
7654;DHT22;3869;48.406;10.774;2023-04-01T06:43:14;8.60;99.90
7654;DHT22;3869;48.406;10.774;2023-04-01T06:45:51;8.60;99.90
7654;DHT22;3869;48.406;10.774;2023-04-01T06:48:34;8.60;99.90
7654;DHT22;3869;48.406;10.774;2023-04-01T06:51:13;8.60;99.90
7654;DHT22;3869;48.406;10.774;2023-04-01T06:53:49;8.70;99.90
7654;DHT22;3869;48.406;10.774;2023-04-01T06:56:21;8.70;99.90
7654;DHT22;3869;48.406;10.774;2023-04-01T06:58:53;8.80;99.90
7654;DHT22;3869;48.406;10.774;2023-04-01T07:01:25;8.90;99.90
7654;DHT22;3869;48.406;10.774;2023-04-01T07:03:58;8.90;99.90
7654;DHT22;3869;48.406;10.774;2023-04-01T07:06:30;9.00;99.90
7654;DHT22;3869;48.406;10.774;2023-04-01T07:09:04;9.10;99.90
7654;DHT22;3869;48.406;10.774;2023-04-01T07:11:35;9.20;99.90
7654;DHT22;3869;48.406;10.774;2023-04-01T07:14:12;9.20;99.90
7654;DHT22;3869;48.406;10.774;2023-04-01T07:16:44;9.20;99.90
7654;DHT22;3869;48.406;10.774;2023-04-01T07:19:20;9.30;99.90
7654;DHT22;3869;48.406;10.774;2023-04-01T07:21:52;9.30;99.90
7654;DHT22;3869;48.406;10.774;2023-04-01T07:24:26;9.30;99.90
7654;DHT22;3869;48.406;10.774;2023-04-01T07:26:56;9.40;99.90
7654;DHT22;3869;48.406;10.774;2023-04-01T07:29:25;9.50;99.90
7654;DHT22;3869;48.406;10.774;2023-04-01T07:32:09;9.50;99.90
7654;DHT22;3869;48.406;10.774;2023-04-01T07:34:51;9.60;99.90
7654;DHT22;3869;48.406;10.774;2023-04-01T07:37:28;9.60;99.90
7654;DHT22;3869;48.406;10.774;2023-04-01T07:40:05;9.50;99.90
7654;DHT22;3869;48.406;10.774;2023-04-01T07:42:42;9.50;99.90
7654;DHT22;3869;48.406;10.774;2023-04-01T07:45:19;9.40;99.90
7654;DHT22;3869;48.406;10.774;2023-04-01T07:48:00;9.40;99.90
7654;DHT22;3869;48.406;10.774;2023-04-01T07:50:34;9.30;99.90
7654;DHT22;3869;48.406;10.774;2023-04-01T07:53:09;9.30;99.90
7654;DHT22;3869;48.406;10.774;2023-04-01T07:55:45;9.30;99.90
7654;DHT22;3869;48.406;10.774;2023-04-01T07:58:21;9.40;99.90
7654;DHT22;3869;48.406;10.774;2023-04-01T08:00:58;9.50;99.90
7654;DHT22;3869;48.406;10.774;2023-04-01T08:03:36;9.60;99.90
7654;DHT22;3869;48.406;10.774;2023-04-01T08:06:13;9.60;99.90
7654;DHT22;3869;48.406;10.774;2023-04-01T08:08:50;9.70;99.90
7654;DHT22;3869;48.406;10.774;2023-04-01T08:11:31;9.70;99.90
7654;DHT22;3869;48.406;10.774;2023-04-01T08:14:06;9.80;99.90
7654;DHT22;3869;48.406;10.774;2023-04-01T08:16:44;9.80;99.90
7654;DHT22;3869;48.406;10.774;2023-04-01T08:19:21;9.80;99.90
7654;DHT22;3869;48.406;10.774;2023-04-01T08:22:00;9.80;99.90
7654;DHT22;3869;48.406;10.774;2023-04-01T08:24:35;9.90;99.90
7654;DHT22;3869;48.406;10.774;2023-04-01T08:27:17;10.00;99.90
7654;DHT22;3869;48.406;10.774;2023-04-01T08:29:51;10.20;99.90
7654;DHT22;3869;48.406;10.774;2023-04-01T08:32:28;10.30;99.90
7654;DHT22;3869;48.406;10.774;2023-04-01T08:35:08;10.40;99.90
7654;DHT22;3869;48.406;10.774;2023-04-01T08:37:40;10.50;99.90
7654;DHT22;3869;48.406;10.774;2023-04-01T08:43:19;10.60;99.90
7654;DHT22;3869;48.406;10.774;2023-04-01T08:48:51;10.60;99.90
7654;DHT22;3869;48.406;10.774;2023-04-01T08:51:48;10.60;99.90
7654;DHT22;3869;48.406;10.774;2023-04-01T08:54:41;10.50;99.90
7654;DHT22;3869;48.406;10.774;2023-04-01T08:57:18;10.60;99.90
7654;DHT22;3869;48.406;10.774;2023-04-01T09:00:00;10.60;99.90
7654;DHT22;3869;48.406;10.774;2023-04-01T09:02:51;10.60;99.90
7654;DHT22;3869;48.406;10.774;2023-04-01T09:06:07;10.60;99.90
7654;DHT22;3869;48.406;10.774;2023-04-01T09:08:50;10.60;99.90
7654;DHT22;3869;48.406;10.774;2023-04-01T09:11:39;10.60;99.90
7654;DHT22;3869;48.406;10.774;2023-04-01T09:14:37;10.60;99.90
7654;DHT22;3869;48.406;10.774;2023-04-01T09:17:27;10.70;99.90
7654;DHT22;3869;48.406;10.774;2023-04-01T09:20:17;10.90;99.90
7654;DHT22;3869;48.406;10.774;2023-04-01T09:22:54;11.00;99.90
7654;DHT22;3869;48.406;10.774;2023-04-01T09:25:45;11.10;99.90
7654;DHT22;3869;48.406;10.774;2023-04-01T09:28:18;11.00;99.90
7654;DHT22;3869;48.406;10.774;2023-04-01T09:31:14;11.10;99.90
7654;DHT22;3869;48.406;10.774;2023-04-01T09:34:09;11.10;99.90
7654;DHT22;3869;48.406;10.774;2023-04-01T09:36:45;11.10;99.90
7654;DHT22;3869;48.406;10.774;2023-04-01T09:39:36;11.20;99.90
7654;DHT22;3869;48.406;10.774;2023-04-01T09:44:56;11.30;99.90
7654;DHT22;3869;48.406;10.774;2023-04-01T09:47:43;11.30;99.90
7654;DHT22;3869;48.406;10.774;2023-04-01T09:50:34;11.30;99.90
7654;DHT22;3869;48.406;10.774;2023-04-01T09:56:23;11.20;99.90
7654;DHT22;3869;48.406;10.774;2023-04-01T09:59:40;11.10;99.90
7654;DHT22;3869;48.406;10.774;2023-04-01T10:05:47;11.10;99.90
7654;DHT22;3869;48.406;10.774;2023-04-01T10:08:40;11.00;99.90
7654;DHT22;3869;48.406;10.774;2023-04-01T10:11:51;11.00;99.90
7654;DHT22;3869;48.406;10.774;2023-04-01T10:17:46;11.10;99.90
7654;DHT22;3869;48.406;10.774;2023-04-01T10:20:38;11.20;99.90
7654;DHT22;3869;48.406;10.774;2023-04-01T10:26:32;10.90;99.90
7654;DHT22;3869;48.406;10.774;2023-04-01T10:38:23;10.30;99.90
7654;DHT22;3869;48.406;10.774;2023-04-01T10:41:27;10.10;99.90
7654;DHT22;3869;48.406;10.774;2023-04-01T10:47:26;9.70;99.90
7654;DHT22;3869;48.406;10.774;2023-04-01T10:56:35;9.50;99.90
7654;DHT22;3869;48.406;10.774;2023-04-01T11:02:36;9.30;99.90
7654;DHT22;3869;48.406;10.774;2023-04-01T11:12:09;9.30;99.90
7654;DHT22;3869;48.406;10.774;2023-04-01T11:18:05;9.30;99.90
7654;DHT22;3869;48.406;10.774;2023-04-01T11:21:21;9.20;99.90
7654;DHT22;3869;48.406;10.774;2023-04-01T11:26:55;9.10;99.90
7654;DHT22;3869;48.406;10.774;2023-04-01T11:29:59;9.10;99.90
7654;DHT22;3869;48.406;10.774;2023-04-01T11:32:46;9.10;99.90
7654;DHT22;3869;48.406;10.774;2023-04-01T11:35:42;9.20;99.90
7654;DHT22;3869;48.406;10.774;2023-04-01T11:38:31;9.20;99.90
7654;DHT22;3869;48.406;10.774;2023-04-01T11:41:12;9.20;99.90
7654;DHT22;3869;48.406;10.774;2023-04-01T11:43:49;9.20;99.90
7654;DHT22;3869;48.406;10.774;2023-04-01T11:46:27;9.10;99.90
7654;DHT22;3869;48.406;10.774;2023-04-01T11:49:05;9.20;99.90
7654;DHT22;3869;48.406;10.774;2023-04-01T11:52:05;9.30;99.90
7654;DHT22;3869;48.406;10.774;2023-04-01T11:54:52;9.30;99.90
7654;DHT22;3869;48.406;10.774;2023-04-01T11:57:51;9.40;99.90
7654;DHT22;3869;48.406;10.774;2023-04-01T12:00:41;9.40;99.90
7654;DHT22;3869;48.406;10.774;2023-04-01T12:06:19;9.50;99.90
7654;DHT22;3869;48.406;10.774;2023-04-01T12:08:55;9.60;99.90
7654;DHT22;3869;48.406;10.774;2023-04-01T12:11:34;9.70;99.90
7654;DHT22;3869;48.406;10.774;2023-04-01T12:14:13;9.60;99.90
7654;DHT22;3869;48.406;10.774;2023-04-01T12:16:55;9.50;99.90
7654;DHT22;3869;48.406;10.774;2023-04-01T12:19:33;9.60;99.90
7654;DHT22;3869;48.406;10.774;2023-04-01T12:22:23;9.60;99.90
7654;DHT22;3869;48.406;10.774;2023-04-01T12:27:53;9.60;99.90
7654;DHT22;3869;48.406;10.774;2023-04-01T12:30:49;9.60;99.90
7654;DHT22;3869;48.406;10.774;2023-04-01T12:33:42;9.60;99.90
7654;DHT22;3869;48.406;10.774;2023-04-01T12:36:34;9.60;99.90
7654;DHT22;3869;48.406;10.774;2023-04-01T12:39:44;9.60;99.90
7654;DHT22;3869;48.406;10.774;2023-04-01T12:42:23;9.70;99.90
7654;DHT22;3869;48.406;10.774;2023-04-01T12:45:08;9.70;99.90
7654;DHT22;3869;48.406;10.774;2023-04-01T12:48:08;9.80;99.90
7654;DHT22;3869;48.406;10.774;2023-04-01T12:50:51;9.70;99.90
7654;DHT22;3869;48.406;10.774;2023-04-01T12:53:39;9.70;99.90
7654;DHT22;3869;48.406;10.774;2023-04-01T12:56:14;9.70;99.90
7654;DHT22;3869;48.406;10.774;2023-04-01T12:59:08;9.80;99.90
7654;DHT22;3869;48.406;10.774;2023-04-01T13:01:58;10.00;99.90
7654;DHT22;3869;48.406;10.774;2023-04-01T13:07:57;10.10;99.90
7654;DHT22;3869;48.406;10.774;2023-04-01T13:10:51;10.30;99.90
7654;DHT22;3869;48.406;10.774;2023-04-01T13:13:36;10.20;99.90
7654;DHT22;3869;48.406;10.774;2023-04-01T13:16:10;10.20;99.90
7654;DHT22;3869;48.406;10.774;2023-04-01T13:18:49;10.20;99.90
7654;DHT22;3869;48.406;10.774;2023-04-01T13:21:25;10.20;99.90
7654;DHT22;3869;48.406;10.774;2023-04-01T13:24:00;10.10;99.90
7654;DHT22;3869;48.406;10.774;2023-04-01T13:26:37;10.10;99.90
7654;DHT22;3869;48.406;10.774;2023-04-01T13:29:13;10.00;99.90
7654;DHT22;3869;48.406;10.774;2023-04-01T13:31:55;9.90;99.90
7654;DHT22;3869;48.406;10.774;2023-04-01T13:34:45;9.90;99.90
7654;DHT22;3869;48.406;10.774;2023-04-01T13:37:26;10.00;99.90
7654;DHT22;3869;48.406;10.774;2023-04-01T13:40:21;10.00;99.90
7654;DHT22;3869;48.406;10.774;2023-04-01T13:42:56;10.10;99.90
7654;DHT22;3869;48.406;10.774;2023-04-01T13:45:26;10.10;99.90
7654;DHT22;3869;48.406;10.774;2023-04-01T13:48:33;10.10;99.90
7654;DHT22;3869;48.406;10.774;2023-04-01T13:51:24;10.10;99.90
7654;DHT22;3869;48.406;10.774;2023-04-01T13:54:07;10.10;99.90
7654;DHT22;3869;48.406;10.774;2023-04-01T13:56:42;10.20;99.90
7654;DHT22;3869;48.406;10.774;2023-04-01T13:59:39;10.10;99.90
7654;DHT22;3869;48.406;10.774;2023-04-01T14:05:51;10.20;99.90
7654;DHT22;3869;48.406;10.774;2023-04-01T14:08:33;10.40;99.90
7654;DHT22;3869;48.406;10.774;2023-04-01T14:11:13;10.40;99.90
7654;DHT22;3869;48.406;10.774;2023-04-01T14:13:50;10.40;99.90
7654;DHT22;3869;48.406;10.774;2023-04-01T14:16:47;10.40;99.90
7654;DHT22;3869;48.406;10.774;2023-04-01T14:19:27;10.30;99.90
7654;DHT22;3869;48.406;10.774;2023-04-01T14:22:03;10.30;99.90
7654;DHT22;3869;48.406;10.774;2023-04-01T14:24:45;10.30;99.90
7654;DHT22;3869;48.406;10.774;2023-04-01T14:27:31;10.30;99.90
7654;DHT22;3869;48.406;10.774;2023-04-01T14:30:20;10.40;99.90
7654;DHT22;3869;48.406;10.774;2023-04-01T14:32:58;10.40;99.90
7654;DHT22;3869;48.406;10.774;2023-04-01T14:35:35;10.40;99.90
7654;DHT22;3869;48.406;10.774;2023-04-01T14:38:16;10.50;99.90
7654;DHT22;3869;48.406;10.774;2023-04-01T14:40:55;10.50;99.90
7654;DHT22;3869;48.406;10.774;2023-04-01T14:44:01;10.60;99.90
7654;DHT22;3869;48.406;10.774;2023-04-01T14:49:36;10.50;99.90
7654;DHT22;3869;48.406;10.774;2023-04-01T14:52:11;10.40;99.90
7654;DHT22;3869;48.406;10.774;2023-04-01T14:54:44;10.40;99.90
7654;DHT22;3869;48.406;10.774;2023-04-01T14:57:14;10.50;99.90
7654;DHT22;3869;48.406;10.774;2023-04-01T14:59:48;10.70;99.90
7654;DHT22;3869;48.406;10.774;2023-04-01T15:02:42;10.70;99.90
7654;DHT22;3869;48.406;10.774;2023-04-01T15:05:27;10.80;99.90
7654;DHT22;3869;48.406;10.774;2023-04-01T15:08:09;10.70;99.90
7654;DHT22;3869;48.406;10.774;2023-04-01T15:10:57;10.70;99.90
7654;DHT22;3869;48.406;10.774;2023-04-01T15:16:45;10.80;99.90
7654;DHT22;3869;48.406;10.774;2023-04-01T15:19:21;10.70;99.90
7654;DHT22;3869;48.406;10.774;2023-04-01T15:22:05;10.60;99.90
7654;DHT22;3869;48.406;10.774;2023-04-01T15:24:43;10.70;99.90
7654;DHT22;3869;48.406;10.774;2023-04-01T15:27:21;10.80;99.90
7654;DHT22;3869;48.406;10.774;2023-04-01T15:30:11;10.80;99.90
7654;DHT22;3869;48.406;10.774;2023-04-01T15:32:55;10.70;99.90
7654;DHT22;3869;48.406;10.774;2023-04-01T15:35:33;10.60;99.90
7654;DHT22;3869;48.406;10.774;2023-04-01T15:38:08;10.60;99.90
7654;DHT22;3869;48.406;10.774;2023-04-01T15:40:42;10.50;99.90
7654;DHT22;3869;48.406;10.774;2023-04-01T15:43:22;10.50;99.90
7654;DHT22;3869;48.406;10.774;2023-04-01T15:45:58;10.50;99.90
7654;DHT22;3869;48.406;10.774;2023-04-01T15:48:36;10.50;99.90
7654;DHT22;3869;48.406;10.774;2023-04-01T15:51:25;10.50;99.90
7654;DHT22;3869;48.406;10.774;2023-04-01T15:54:27;10.50;99.90
7654;DHT22;3869;48.406;10.774;2023-04-01T15:57:08;10.40;99.90
7654;DHT22;3869;48.406;10.774;2023-04-01T15:59:52;10.50;99.90
7654;DHT22;3869;48.406;10.774;2023-04-01T16:02:25;10.50;99.90
7654;DHT22;3869;48.406;10.774;2023-04-01T16:05:01;10.50;99.90
7654;DHT22;3869;48.406;10.774;2023-04-01T16:07:55;10.50;99.90
7654;DHT22;3869;48.406;10.774;2023-04-01T16:10:44;10.50;99.90
7654;DHT22;3869;48.406;10.774;2023-04-01T16:13:26;10.50;99.90
7654;DHT22;3869;48.406;10.774;2023-04-01T16:16:01;10.50;99.90
7654;DHT22;3869;48.406;10.774;2023-04-01T16:18:50;10.50;99.90
7654;DHT22;3869;48.406;10.774;2023-04-01T16:21:27;10.50;99.90
7654;DHT22;3869;48.406;10.774;2023-04-01T16:24:10;10.50;99.90
7654;DHT22;3869;48.406;10.774;2023-04-01T16:26:47;10.40;99.90
7654;DHT22;3869;48.406;10.774;2023-04-01T16:29:27;10.40;99.90
7654;DHT22;3869;48.406;10.774;2023-04-01T16:32:13;10.30;99.90
7654;DHT22;3869;48.406;10.774;2023-04-01T16:34:45;10.30;99.90
7654;DHT22;3869;48.406;10.774;2023-04-01T16:37:19;10.30;99.90
7654;DHT22;3869;48.406;10.774;2023-04-01T16:39:52;10.20;99.90
7654;DHT22;3869;48.406;10.774;2023-04-01T16:42:30;10.10;99.90
7654;DHT22;3869;48.406;10.774;2023-04-01T16:45:02;10.10;99.90
7654;DHT22;3869;48.406;10.774;2023-04-01T16:47:34;10.10;99.90
7654;DHT22;3869;48.406;10.774;2023-04-01T16:50:13;10.10;99.90
7654;DHT22;3869;48.406;10.774;2023-04-01T16:52:57;10.10;99.90
7654;DHT22;3869;48.406;10.774;2023-04-01T16:55:35;10.00;99.90
7654;DHT22;3869;48.406;10.774;2023-04-01T16:58:14;10.00;99.90
7654;DHT22;3869;48.406;10.774;2023-04-01T17:00:49;10.00;99.90
7654;DHT22;3869;48.406;10.774;2023-04-01T17:03:25;10.00;99.90
7654;DHT22;3869;48.406;10.774;2023-04-01T17:06:05;9.90;99.90
7654;DHT22;3869;48.406;10.774;2023-04-01T17:08:46;9.90;99.90
7654;DHT22;3869;48.406;10.774;2023-04-01T17:11:19;9.90;99.90
7654;DHT22;3869;48.406;10.774;2023-04-01T17:13:57;9.80;99.90
7654;DHT22;3869;48.406;10.774;2023-04-01T17:16:43;9.80;99.90
7654;DHT22;3869;48.406;10.774;2023-04-01T17:19:22;9.80;99.90
7654;DHT22;3869;48.406;10.774;2023-04-01T17:21:57;9.80;99.90
7654;DHT22;3869;48.406;10.774;2023-04-01T17:24:44;9.70;99.90
7654;DHT22;3869;48.406;10.774;2023-04-01T17:27:24;9.70;99.90
7654;DHT22;3869;48.406;10.774;2023-04-01T17:30:08;9.60;99.90
7654;DHT22;3869;48.406;10.774;2023-04-01T17:32:53;9.60;99.90
7654;DHT22;3869;48.406;10.774;2023-04-01T17:35:29;9.60;99.90
7654;DHT22;3869;48.406;10.774;2023-04-01T17:38:10;9.70;99.90
7654;DHT22;3869;48.406;10.774;2023-04-01T17:40:53;9.60;99.90
7654;DHT22;3869;48.406;10.774;2023-04-01T17:43:32;9.60;99.90
7654;DHT22;3869;48.406;10.774;2023-04-01T17:46:20;9.50;99.90
7654;DHT22;3869;48.406;10.774;2023-04-01T17:48:56;9.50;99.90
7654;DHT22;3869;48.406;10.774;2023-04-01T17:51:31;9.40;99.90
7654;DHT22;3869;48.406;10.774;2023-04-01T17:54:10;9.40;99.90
7654;DHT22;3869;48.406;10.774;2023-04-01T17:56:52;9.40;99.90
7654;DHT22;3869;48.406;10.774;2023-04-01T17:59:27;9.30;99.90
7654;DHT22;3869;48.406;10.774;2023-04-01T18:02:02;9.30;99.90
7654;DHT22;3869;48.406;10.774;2023-04-01T18:04:43;9.30;99.90
7654;DHT22;3869;48.406;10.774;2023-04-01T18:07:45;9.20;99.90
7654;DHT22;3869;48.406;10.774;2023-04-01T18:10:28;9.20;99.90
7654;DHT22;3869;48.406;10.774;2023-04-01T18:13:15;9.20;99.90
7654;DHT22;3869;48.406;10.774;2023-04-01T18:15:59;9.10;99.90
7654;DHT22;3869;48.406;10.774;2023-04-01T18:18:45;9.10;99.90
7654;DHT22;3869;48.406;10.774;2023-04-01T18:21:21;9.10;99.90
7654;DHT22;3869;48.406;10.774;2023-04-01T18:23:56;9.00;99.90